Monday, December 10, 2018, 9:21 PM EST
Back to Local

KHFD, Hartford-brainard Airport

Location: Hartford, CT, United States Lat: 41.733
Local Time: 9:21 PM EST ( 2:21 GMT) Lon: -72.65
Time Zone: US/Eastern Elev: 19 ft

Show me the last for .
Show Decoded

2018-12-10 20:53 METAR KHFD 110153Z 00000KT 10SM CLR M05/M08 A3017 RMK AO2 SLP217 T10501083 =
2018-12-10 19:53 METAR KHFD 110053Z 00000KT 10SM CLR M02/M08 A3017 RMK AO2 SLP216 T10221083 =
2018-12-10 18:53 METAR KHFD 102353Z 01003KT 10SM CLR M01/M08 A3016 RMK AO2 SLP212 T10111083 10039
                 21011 51015 =
2018-12-10 17:53 METAR KHFD 102253Z 35003KT 10SM CLR 01/M08 A3015 RMK AO2 SLP208 T00061083 =
2018-12-10 16:53 METAR KHFD 102153Z 35006KT 10SM CLR 02/M09 A3013 RMK AO2 SLP202 T00171089 =
2018-12-10 15:53 METAR KHFD 102053Z 01006KT 10SM CLR 03/M08 A3011 RMK AO2 SLP197 T00281083 53001
                 =
2018-12-10 14:53 METAR KHFD 101953Z 35007KT 10SM CLR 03/M08 A3010 RMK AO2 SLP193 T00331083 =
2018-12-10 13:53 METAR KHFD 101853Z 03005KT 10SM CLR 03/M08 A3010 RMK AO2 SLP192 T00331083 =
2018-12-10 12:53 METAR KHFD 101753Z 36007KT 10SM CLR 03/M08 A3011 RMK AO2 SLP195 I6000 T00331078
                 10033 21083 56015 =
2018-12-10 11:53 METAR KHFD 101653Z 02011KT 10SM CLR 02/M08 A3012 RMK AO2 SLP199 T00221078 =
2018-12-10 10:53 METAR KHFD 101553Z 02007KT 10SM CLR 02/M07 A3014 RMK AO2 SLP205 T00171072 =
2018-12-10 09:53 METAR KHFD 101453Z 02004KT 10SM CLR M01/M06 A3015 RMK AO2 SLP210 I3000 T10061061
                 53015 =
2018-12-10 08:53 METAR KHFD 101353Z 00000KT 10SM CLR M03/M06 A3014 RMK AO2 SLP205 T10331061 =
2018-12-10 07:53 METAR KHFD 101253Z 00000KT 10SM CLR M07/M08 A3012 RMK AO2 SLP199 I1000 T10671078
                 =
2018-12-10 06:53 METAR KHFD 101153Z 00000KT 7SM CLR M07/M08 A3011 RMK AO2 SLP195 I1000 I6000
                 T10721083 11039 21078 53003 =
2018-12-10 05:53 METAR KHFD 101053Z 00000KT 8SM CLR M07/M08 A3010 RMK AO2 SLP192 T10671083 =
2018-12-10 04:53 METAR KHFD 100953Z AUTO 00000KT 8SM CLR M07/M08 A3009 RMK AO2 SLP189 T10671083 =
2018-12-10 03:53 METAR KHFD 100853Z AUTO 00000KT 7SM CLR M06/M07 A3010 RMK AO2 SLP192 T10561072
                 58009 =
2018-12-10 02:53 METAR KHFD 100753Z AUTO 10003KT 9SM CLR M06/M08 A3011 RMK AO2 SLP197 T10561078 =
2018-12-10 01:53 METAR KHFD 100653Z AUTO 00000KT 10SM CLR M04/M07 A3011 RMK AO2 SLP197 T10441067
                 =
2018-12-10 00:53 METAR KHFD 100553Z AUTO 00000KT 10SM CLR M04/M09 A3012 RMK AO2 SLP200 T10441089
                 11011 21050 58020 =
2018-12-09 23:53 METAR KHFD 100453Z 00000KT 10SM CLR M04/M08 A3015 RMK AO2 SLP209 T10441083
                 400171078 =
2018-12-09 22:53 METAR KHFD 100353Z 00000KT 10SM CLR M03/M08 A3018 RMK AO2 SLP218 T10281078 =
2018-12-09 21:53 METAR KHFD 100253Z 00000KT 10SM CLR M02/M08 A3018 RMK AO2 SLP220 T10171083 58012
                 =

Support USWX by starting your Amazon purchase here.